createdAt,value
2023-03-16T00:00:36.412Z,12.00
2023-03-16T00:03:05.210Z,12.30
2023-03-16T00:05:33.700Z,11.30
2023-03-16T00:08:02.104Z,12.00
2023-03-16T00:10:31.011Z,11.67
2023-03-16T00:12:59.412Z,12.87
2023-03-16T00:15:27.749Z,13.03
2023-03-16T00:17:57.439Z,12.60
2023-03-16T00:20:26.246Z,13.63
2023-03-16T00:22:54.930Z,13.63
2023-03-16T00:25:24.661Z,13.60
2023-03-16T00:27:53.225Z,13.20
2023-03-16T00:30:23.202Z,13.93
2023-03-16T00:32:54.140Z,13.70
2023-03-16T00:35:23.864Z,13.97
2023-03-16T00:37:52.336Z,13.70
2023-03-16T00:40:20.974Z,13.00
2023-03-16T00:42:49.379Z,13.63
2023-03-16T00:45:17.834Z,13.70
2023-03-16T00:47:46.299Z,13.53
2023-03-16T00:50:15.679Z,12.87
2023-03-16T00:52:45.934Z,13.30
2023-03-16T00:55:14.411Z,14.30
2023-03-16T00:57:43.018Z,13.47
2023-03-16T01:00:15.641Z,13.37
2023-03-16T01:02:45.389Z,12.97
2023-03-16T01:05:15.229Z,14.07
2023-03-16T01:07:45.391Z,12.87
2023-03-16T01:10:17.522Z,12.83
2023-03-16T01:12:46.443Z,12.37
2023-03-16T01:15:14.808Z,12.87
2023-03-16T01:17:43.267Z,13.40
2023-03-16T01:20:15.593Z,13.00
2023-03-16T01:22:45.621Z,13.00
2023-03-16T01:25:14.733Z,13.20
2023-03-16T01:27:44.275Z,14.07
2023-03-16T01:30:13.649Z,13.07
2023-03-16T01:32:43.631Z,13.40
2023-03-16T01:35:15.213Z,13.63
2023-03-16T01:37:44.913Z,14.10
2023-03-16T01:40:19.332Z,13.83
2023-03-16T01:42:48.956Z,13.13
2023-03-16T01:45:56.214Z,14.07
2023-03-16T01:48:27.401Z,14.03
2023-03-16T01:50:58.296Z,12.70
2023-03-16T01:53:28.192Z,12.77
2023-03-16T01:55:56.902Z,14.07
2023-03-16T01:58:26.056Z,12.80
2023-03-16T02:00:54.741Z,12.43
2023-03-16T02:03:24.261Z,12.67
2023-03-16T02:06:03.603Z,12.23
2023-03-16T02:08:36.645Z,12.67
2023-03-16T02:11:06.717Z,12.40
2023-03-16T02:13:44.017Z,13.13
2023-03-16T02:16:19.617Z,11.47
2023-03-16T02:18:51.534Z,12.77
2023-03-16T02:21:28.209Z,12.60
2023-03-16T02:23:58.885Z,12.17
2023-03-16T02:26:33.871Z,12.83
2023-03-16T02:29:14.786Z,13.70
2023-03-16T02:31:45.810Z,14.97
2023-03-16T02:34:15.987Z,15.93
2023-03-16T02:36:47.713Z,15.57
2023-03-16T02:39:17.949Z,16.60
2023-03-16T02:41:48.466Z,16.10
2023-03-16T02:44:24.517Z,15.87
2023-03-16T02:47:01.331Z,15.20
2023-03-16T02:49:35.334Z,15.70
2023-03-16T02:52:04.384Z,16.37
2023-03-16T02:54:33.603Z,16.03
2023-03-16T02:57:02.005Z,16.27
2023-03-16T02:59:32.289Z,17.27
2023-03-16T03:02:02.037Z,15.60
2023-03-16T03:04:30.433Z,17.23
2023-03-16T03:07:04.730Z,15.80
2023-03-16T03:09:37.676Z,17.07
2023-03-16T03:12:06.373Z,15.23
2023-03-16T03:14:38.107Z,15.00
2023-03-16T03:17:09.242Z,16.17
2023-03-16T03:19:38.293Z,17.10
2023-03-16T03:22:07.423Z,15.03
2023-03-16T03:24:35.991Z,16.97
2023-03-16T03:27:06.128Z,15.33
2023-03-16T03:29:38.831Z,16.00
2023-03-16T03:32:09.160Z,15.47
2023-03-16T03:34:38.168Z,15.90
2023-03-16T03:37:07.333Z,17.53
2023-03-16T03:39:36.367Z,15.87
2023-03-16T03:42:04.863Z,15.93
2023-03-16T03:44:34.693Z,16.67
2023-03-16T03:47:03.637Z,15.40
2023-03-16T03:49:33.992Z,16.33
2023-03-16T03:52:05.053Z,15.17
2023-03-16T03:54:33.488Z,14.43
2023-03-16T03:57:07.361Z,14.70
2023-03-16T03:59:42.571Z,17.17
2023-03-16T04:02:12.135Z,15.93
2023-03-16T04:04:47.083Z,16.37
2023-03-16T04:07:16.435Z,16.50
2023-03-16T04:09:46.546Z,14.50
2023-03-16T04:12:27.754Z,14.33
2023-03-16T04:14:56.876Z,14.87
2023-03-16T04:17:27.778Z,14.50
2023-03-16T04:20:02.130Z,13.23
2023-03-16T04:22:31.234Z,16.17
2023-03-16T04:24:59.806Z,15.73
2023-03-16T04:27:36.488Z,15.67
2023-03-16T04:30:07.164Z,16.70
2023-03-16T04:32:36.607Z,15.40
2023-03-16T04:35:08.958Z,16.00
2023-03-16T04:37:49.421Z,16.07
2023-03-16T04:40:19.567Z,17.30
2023-03-16T04:42:54.065Z,16.90
2023-03-16T04:45:22.776Z,17.33
2023-03-16T04:47:55.234Z,17.70
2023-03-16T04:50:25.523Z,16.83
2023-03-16T04:52:56.361Z,17.20
2023-03-16T04:55:25.445Z,17.17
2023-03-16T04:57:54.442Z,17.83
2023-03-16T05:00:25.302Z,17.33
2023-03-16T05:03:23.562Z,18.47
2023-03-16T05:05:53.794Z,17.80
2023-03-16T05:08:26.009Z,17.43
2023-03-16T05:10:58.855Z,17.73
2023-03-16T05:13:31.431Z,17.37
2023-03-16T05:16:01.972Z,16.73
2023-03-16T05:18:34.497Z,18.47
2023-03-16T05:21:04.552Z,16.43
2023-03-16T05:23:44.550Z,15.27
2023-03-16T05:26:14.225Z,15.60
2023-03-16T05:28:43.607Z,15.07
2023-03-16T05:31:15.200Z,15.63
2023-03-16T05:33:49.393Z,15.77
2023-03-16T05:36:24.824Z,15.37
2023-03-16T05:38:58.394Z,16.03
2023-03-16T05:41:39.006Z,15.03
2023-03-16T05:44:30.920Z,15.33
2023-03-16T05:47:25.246Z,13.50
2023-03-16T05:49:58.045Z,14.20
2023-03-16T05:52:35.032Z,13.57
2023-03-16T05:55:11.917Z,14.17
2023-03-16T05:57:40.416Z,14.53
2023-03-16T06:00:15.315Z,14.13
2023-03-16T06:02:52.469Z,13.40
2023-03-16T06:05:24.549Z,13.20
2023-03-16T06:07:54.487Z,13.23
2023-03-16T06:10:24.017Z,13.27
2023-03-16T06:12:52.965Z,13.97
2023-03-16T06:15:25.163Z,13.47
2023-03-16T06:17:54.530Z,13.73
2023-03-16T06:20:23.139Z,14.27
2023-03-16T06:22:51.840Z,13.70
2023-03-16T06:25:21.857Z,13.13
2023-03-16T06:27:50.439Z,13.27
2023-03-16T06:30:19.615Z,11.70
2023-03-16T06:32:48.103Z,12.83
2023-03-16T06:35:16.871Z,11.57
2023-03-16T06:38:05.572Z,12.10
2023-03-16T06:41:01.762Z,13.10
2023-03-16T06:43:31.332Z,11.97
2023-03-16T06:46:00.164Z,10.77
2023-03-16T06:48:28.701Z,11.83
2023-03-16T06:50:57.322Z,12.27
2023-03-16T06:53:28.763Z,11.60
2023-03-16T06:55:58.948Z,10.33
2023-03-16T06:58:31.220Z,11.83
2023-03-16T07:01:03.708Z,10.93
2023-03-16T07:03:32.660Z,10.50
2023-03-16T07:06:09.155Z,11.03
2023-03-16T07:08:37.984Z,11.20
2023-03-16T07:11:07.035Z,11.30
2023-03-16T07:13:38.376Z,11.40
2023-03-16T07:16:08.722Z,10.77
2023-03-16T07:18:39.921Z,11.33
2023-03-16T07:21:11.411Z,11.43
2023-03-16T07:23:40.640Z,11.83
2023-03-16T07:26:12.266Z,10.73
2023-03-16T07:28:52.122Z,11.00
2023-03-16T07:31:21.206Z,12.17
2023-03-16T07:33:49.889Z,11.73
2023-03-16T07:36:27.873Z,11.77
2023-03-16T07:39:01.604Z,10.70
2023-03-16T07:41:32.564Z,12.50
2023-03-16T07:44:16.940Z,11.20
2023-03-16T07:46:49.606Z,11.37
2023-03-16T07:49:19.939Z,12.10
2023-03-16T07:51:49.534Z,11.27
2023-03-16T07:54:21.333Z,12.87
2023-03-16T07:56:50.272Z,11.50
2023-03-16T07:59:38.677Z,12.33
2023-03-16T08:02:08.598Z,12.23
2023-03-16T08:04:37.200Z,11.70
2023-03-16T08:07:05.724Z,12.43
2023-03-16T08:09:48.796Z,11.80
2023-03-16T08:12:23.108Z,10.27
2023-03-16T08:14:54.666Z,10.40
2023-03-16T08:17:29.991Z,10.50
2023-03-16T08:20:00.004Z,9.77
2023-03-16T08:22:28.796Z,9.60
2023-03-16T08:24:57.184Z,9.80
2023-03-16T08:27:26.168Z,9.80
2023-03-16T08:30:05.069Z,8.63
2023-03-16T08:32:35.631Z,8.48
2023-03-16T08:35:04.719Z,8.83
2023-03-16T08:37:33.410Z,9.90
2023-03-16T08:40:02.320Z,10.23
2023-03-16T08:42:31.450Z,10.10
2023-03-16T08:45:12.256Z,9.93
2023-03-16T08:47:43.002Z,9.20
2023-03-16T08:50:15.881Z,9.32
2023-03-16T08:52:44.313Z,9.98
2023-03-16T08:55:13.413Z,10.27
2023-03-16T08:57:41.849Z,9.60
2023-03-16T09:00:14.562Z,10.73
2023-03-16T09:02:44.109Z,9.82
2023-03-16T09:05:15.972Z,10.63
2023-03-16T09:07:44.440Z,10.60
2023-03-16T09:10:16.616Z,9.57
2023-03-16T09:12:45.654Z,10.48
2023-03-16T09:15:15.679Z,10.07
2023-03-16T09:17:45.921Z,10.35
2023-03-16T09:20:26.808Z,10.23
2023-03-16T09:22:58.904Z,9.40
2023-03-16T09:25:27.914Z,9.67
2023-03-16T09:27:56.525Z,8.83
2023-03-16T09:30:26.638Z,9.77
2023-03-16T09:32:56.184Z,8.60
2023-03-16T09:35:25.300Z,8.65
2023-03-16T09:38:05.634Z,8.50
2023-03-16T09:40:38.401Z,9.77
2023-03-16T09:43:29.539Z,9.10
2023-03-16T09:46:06.759Z,9.35
2023-03-16T09:48:38.188Z,9.40
2023-03-16T09:51:09.761Z,9.15
2023-03-16T09:53:40.235Z,9.35
2023-03-16T09:56:12.426Z,9.53
2023-03-16T09:58:40.849Z,8.18
2023-03-16T10:01:19.127Z,9.32
2023-03-16T10:04:06.949Z,9.30
2023-03-16T10:06:38.842Z,9.50
2023-03-16T10:09:21.609Z,9.50
2023-03-16T10:11:54.797Z,9.43
2023-03-16T10:14:30.052Z,9.00
2023-03-16T10:17:04.908Z,9.30
2023-03-16T10:19:40.647Z,9.00
2023-03-16T10:22:19.962Z,8.98
2023-03-16T10:25:02.694Z,9.65
2023-03-16T10:27:33.964Z,9.00
2023-03-16T10:30:07.354Z,9.57
2023-03-16T10:32:38.702Z,8.68
2023-03-16T10:35:29.080Z,8.00
2023-03-16T10:37:58.731Z,8.32
2023-03-16T10:40:28.445Z,9.07
2023-03-16T10:42:57.047Z,8.80
2023-03-16T10:45:31.590Z,8.90
2023-03-16T10:48:09.553Z,8.75
2023-03-16T10:50:38.147Z,8.20
2023-03-16T10:53:14.485Z,8.20
2023-03-16T10:55:46.118Z,7.83
2023-03-16T10:58:25.363Z,7.00
2023-03-16T11:00:55.183Z,8.27
2023-03-16T11:03:28.997Z,8.30
2023-03-16T11:06:02.731Z,8.32
2023-03-16T11:08:35.570Z,8.85
2023-03-16T11:11:12.196Z,8.98
2023-03-16T11:13:46.240Z,9.05
2023-03-16T11:16:26.952Z,9.02
2023-03-16T11:19:00.034Z,9.10
2023-03-16T11:21:41.372Z,8.50
2023-03-16T11:24:18.588Z,8.50
2023-03-16T11:26:57.544Z,8.63
2023-03-16T11:29:29.976Z,8.50
2023-03-16T11:32:02.647Z,8.13
2023-03-16T11:34:34.278Z,8.60
2023-03-16T11:37:14.292Z,9.00
2023-03-16T11:39:54.290Z,9.07
2023-03-16T11:42:32.029Z,8.82
2023-03-16T11:45:14.458Z,8.80
2023-03-16T11:48:04.549Z,8.73
2023-03-16T11:50:45.782Z,9.03
2023-03-16T11:53:27.364Z,8.27
2023-03-16T11:56:08.127Z,9.00
2023-03-16T11:58:54.211Z,8.13
2023-03-16T12:01:30.706Z,8.97
2023-03-16T12:04:12.998Z,9.23
2023-03-16T12:06:57.639Z,7.93
2023-03-16T12:10:02.398Z,8.57
2023-03-16T12:12:43.886Z,8.17
2023-03-16T12:15:27.912Z,8.83
2023-03-16T12:18:02.808Z,8.40
2023-03-16T12:20:35.936Z,8.73
2023-03-16T12:23:11.688Z,8.10
2023-03-16T12:25:45.537Z,7.97
2023-03-16T12:28:22.107Z,9.30
2023-03-16T12:31:09.481Z,10.00
2023-03-16T12:33:50.047Z,10.23
2023-03-16T12:36:40.322Z,10.20
2023-03-16T12:39:14.274Z,8.80
2023-03-16T12:41:52.993Z,8.82
2023-03-16T12:44:28.080Z,9.15
2023-03-16T12:47:01.782Z,9.63
2023-03-16T12:49:36.341Z,8.80
2023-03-16T12:52:09.036Z,9.20
2023-03-16T12:54:52.989Z,8.07
2023-03-16T12:57:25.926Z,8.60
2023-03-16T12:59:59.549Z,9.07
2023-03-16T13:02:32.259Z,9.50
2023-03-16T13:05:03.773Z,8.95
2023-03-16T13:07:33.487Z,9.30
2023-03-16T13:10:10.252Z,9.82
2023-03-16T13:12:41.972Z,10.07
2023-03-16T13:15:29.768Z,10.27
2023-03-16T13:18:23.349Z,9.82
2023-03-16T13:20:56.544Z,10.18
2023-03-16T13:23:28.949Z,10.25
2023-03-16T13:26:07.377Z,9.73
2023-03-16T13:28:38.872Z,9.30
2023-03-16T13:31:21.037Z,9.68
2023-03-16T13:33:51.422Z,9.82
2023-03-16T13:36:19.957Z,10.30
2023-03-16T13:38:58.603Z,9.70
2023-03-16T13:41:28.547Z,10.40
2023-03-16T13:43:56.906Z,10.45
2023-03-16T13:46:31.163Z,10.63
2023-03-16T13:49:00.883Z,10.10
2023-03-16T13:51:33.204Z,10.45
2023-03-16T13:54:09.077Z,10.57
2023-03-16T13:56:40.463Z,10.32
2023-03-16T13:59:10.700Z,9.88
2023-03-16T14:01:39.314Z,9.68
2023-03-16T14:04:14.066Z,10.32
2023-03-16T14:06:43.240Z,10.25
2023-03-16T14:09:18.425Z,10.57
2023-03-16T14:11:48.804Z,10.40
2023-03-16T14:14:18.954Z,11.10
2023-03-16T14:16:47.225Z,10.07
2023-03-16T14:19:20.435Z,10.18
2023-03-16T14:21:49.839Z,10.48
2023-03-16T14:24:31.023Z,10.75
2023-03-16T14:27:16.981Z,10.23
2023-03-16T14:29:46.207Z,10.93
2023-03-16T14:32:28.201Z,11.35
2023-03-16T14:35:14.741Z,10.25
2023-03-16T14:37:43.719Z,10.57
2023-03-16T14:40:25.608Z,10.25
2023-03-16T14:42:58.769Z,9.80
2023-03-16T14:45:32.322Z,10.43
2023-03-16T14:48:06.141Z,10.77
2023-03-16T14:50:35.402Z,11.18
2023-03-16T14:53:05.236Z,11.35
2023-03-16T14:55:33.721Z,10.50
2023-03-16T14:58:03.571Z,10.88
2023-03-16T15:00:37.114Z,10.47
2023-03-16T15:03:17.210Z,10.45
2023-03-16T15:05:50.214Z,10.55
2023-03-16T15:08:23.267Z,10.68
2023-03-16T15:10:52.175Z,11.10
2023-03-16T15:13:52.864Z,11.00
2023-03-16T15:16:23.275Z,10.97
2023-03-16T15:18:52.281Z,11.17
2023-03-16T15:21:24.299Z,11.30
2023-03-16T15:23:52.731Z,12.10
2023-03-16T15:26:26.359Z,12.00
2023-03-16T15:28:57.020Z,11.60
2023-03-16T15:31:26.104Z,12.70
2023-03-16T15:33:54.612Z,11.90
2023-03-16T15:36:25.103Z,12.60
2023-03-16T15:38:55.670Z,12.17
2023-03-16T15:41:30.180Z,11.93
2023-03-16T15:44:03.379Z,12.07
2023-03-16T15:46:32.477Z,12.57
2023-03-16T15:49:00.850Z,12.20
2023-03-16T15:51:31.290Z,11.60
2023-03-16T15:54:03.002Z,10.60
2023-03-16T15:56:44.049Z,10.83
2023-03-16T15:59:22.424Z,10.80
2023-03-16T16:01:52.439Z,12.17
2023-03-16T16:04:23.819Z,11.10
2023-03-16T16:06:55.546Z,11.03
2023-03-16T16:09:24.301Z,11.10
2023-03-16T16:11:52.775Z,11.73
2023-03-16T16:14:26.021Z,10.97
2023-03-16T16:16:55.276Z,10.83
2023-03-16T16:19:23.818Z,11.00
2023-03-16T16:21:52.850Z,10.63
2023-03-16T16:24:21.177Z,10.60
2023-03-16T16:26:55.514Z,10.70
2023-03-16T16:29:30.174Z,11.13
2023-03-16T16:31:59.234Z,11.10
2023-03-16T16:34:28.246Z,10.30
2023-03-16T16:36:57.736Z,10.90
2023-03-16T16:39:26.789Z,10.37
2023-03-16T16:41:57.161Z,11.00
2023-03-16T16:44:33.419Z,10.30
2023-03-16T16:47:03.870Z,10.83
2023-03-16T16:49:35.248Z,10.80
2023-03-16T16:52:03.976Z,10.03
2023-03-16T16:54:33.124Z,10.03
2023-03-16T16:57:03.192Z,10.73
2023-03-16T16:59:34.761Z,10.47
2023-03-16T17:02:14.183Z,10.33
2023-03-16T17:04:42.630Z,9.90
2023-03-16T17:07:13.622Z,9.60
2023-03-16T17:09:42.022Z,10.47
2023-03-16T17:12:18.516Z,9.60
2023-03-16T17:14:48.393Z,9.60
2023-03-16T17:17:18.490Z,9.60
2023-03-16T17:19:48.674Z,8.93
2023-03-16T17:22:24.550Z,10.37
2023-03-16T17:24:53.279Z,9.70
2023-03-16T17:27:26.149Z,9.83
2023-03-16T17:29:57.158Z,10.47
2023-03-16T17:32:26.687Z,9.67
2023-03-16T17:34:55.399Z,10.37
2023-03-16T17:37:24.250Z,10.10
2023-03-16T17:39:56.314Z,10.90
2023-03-16T17:42:26.701Z,11.07
2023-03-16T17:44:58.045Z,11.37
2023-03-16T17:47:28.744Z,10.53
2023-03-16T17:49:57.303Z,10.40
2023-03-16T17:52:27.757Z,9.90
2023-03-16T17:54:56.662Z,9.67
2023-03-16T17:57:28.958Z,9.70
2023-03-16T17:59:59.371Z,10.13
2023-03-16T18:02:50.147Z,9.83
2023-03-16T18:05:22.204Z,9.37
2023-03-16T18:07:51.150Z,9.70
2023-03-16T18:10:21.851Z,9.83
2023-03-16T18:12:55.766Z,9.03
2023-03-16T18:15:31.227Z,9.40
2023-03-16T18:18:00.902Z,10.33
2023-03-16T18:20:33.446Z,10.53
2023-03-16T18:23:04.932Z,10.77
2023-03-16T18:25:39.025Z,9.63
2023-03-16T18:28:09.903Z,10.57
2023-03-16T18:30:41.869Z,10.53
2023-03-16T18:33:23.655Z,10.17
2023-03-16T18:35:54.456Z,10.93
2023-03-16T18:38:30.648Z,10.43
2023-03-16T18:40:59.789Z,9.23
2023-03-16T18:43:29.027Z,10.10
2023-03-16T18:45:58.882Z,10.00
2023-03-16T18:48:31.089Z,9.03
2023-03-16T18:50:59.631Z,9.10
2023-03-16T18:53:29.743Z,9.17
2023-03-16T18:55:58.667Z,9.33
2023-03-16T18:58:27.920Z,10.40
2023-03-16T19:01:00.009Z,9.00
2023-03-16T19:03:31.058Z,9.10
2023-03-16T19:06:01.352Z,9.80
2023-03-16T19:08:30.419Z,9.70
2023-03-16T19:11:01.856Z,9.40
2023-03-16T19:13:30.252Z,9.53
2023-03-16T19:16:01.376Z,9.20
2023-03-16T19:18:30.441Z,8.97
2023-03-16T19:20:59.022Z,9.63
2023-03-16T19:23:31.772Z,9.97
2023-03-16T19:26:00.411Z,9.93
2023-03-16T19:28:34.078Z,9.57
2023-03-16T19:31:18.968Z,9.97
2023-03-16T19:33:48.014Z,10.30
2023-03-16T19:36:25.710Z,10.50
2023-03-16T19:38:54.799Z,11.90
2023-03-16T19:41:27.199Z,11.87
2023-03-16T19:43:57.862Z,11.10
2023-03-16T19:46:28.597Z,10.83
2023-03-16T19:49:00.164Z,10.83
2023-03-16T19:51:29.451Z,9.90
2023-03-16T19:53:59.550Z,9.70
2023-03-16T19:56:29.317Z,10.43
2023-03-16T19:58:57.725Z,9.80
2023-03-16T20:01:33.027Z,9.73
2023-03-16T20:04:04.472Z,9.73
2023-03-16T20:06:34.241Z,9.90
2023-03-16T20:09:02.769Z,9.87
2023-03-16T20:11:32.626Z,9.73
2023-03-16T20:14:02.259Z,9.50
2023-03-16T20:16:33.966Z,9.60
2023-03-16T20:19:05.371Z,10.03
2023-03-16T20:21:33.842Z,9.97
2023-03-16T20:24:02.421Z,8.90
2023-03-16T20:26:33.523Z,9.40
2023-03-16T20:29:02.686Z,9.30
2023-03-16T20:31:36.741Z,9.20
2023-03-16T20:34:05.823Z,10.07
2023-03-16T20:36:34.288Z,9.80
2023-03-16T20:39:03.237Z,9.20
2023-03-16T20:41:33.032Z,9.80
2023-03-16T20:44:03.252Z,9.70
2023-03-16T20:46:34.450Z,9.83
2023-03-16T20:49:03.622Z,10.37
2023-03-16T20:51:32.007Z,8.97
2023-03-16T20:54:00.805Z,9.93
2023-03-16T20:56:29.205Z,9.60
2023-03-16T20:58:59.064Z,12.73
2023-03-16T21:01:28.156Z,18.60
2023-03-16T21:04:00.175Z,19.57
2023-03-16T21:06:30.445Z,18.57
2023-03-16T21:09:03.377Z,20.13
2023-03-16T21:11:36.930Z,18.80
2023-03-16T21:14:07.184Z,12.67
2023-03-16T21:16:35.795Z,12.30
2023-03-16T21:19:12.548Z,13.27
2023-03-16T21:21:41.395Z,13.27
2023-03-16T21:24:10.155Z,13.00
2023-03-16T21:26:38.794Z,12.13
2023-03-16T21:29:12.156Z,12.63
2023-03-16T21:31:41.115Z,11.40
2023-03-16T21:34:23.828Z,11.70
2023-03-16T21:36:52.796Z,11.93
2023-03-16T21:39:25.518Z,12.17
2023-03-16T21:41:54.424Z,11.53
2023-03-16T21:44:22.866Z,10.90
2023-03-16T21:46:51.595Z,11.97
2023-03-16T21:49:21.766Z,11.77
2023-03-16T21:51:51.253Z,11.70
2023-03-16T21:54:20.359Z,12.57
2023-03-16T21:56:48.976Z,12.30
2023-03-16T21:59:17.471Z,11.37
2023-03-16T22:02:00.737Z,12.47
2023-03-16T22:04:31.744Z,11.17
2023-03-16T22:07:00.107Z,11.77
2023-03-16T22:09:30.509Z,12.17
2023-03-16T22:11:59.234Z,13.17
2023-03-16T22:14:28.251Z,12.43
2023-03-16T22:16:57.030Z,12.40
2023-03-16T22:19:27.111Z,12.20
2023-03-16T22:21:57.813Z,13.43
2023-03-16T22:24:29.012Z,13.63
2023-03-16T22:26:58.258Z,12.80
2023-03-16T22:29:29.082Z,13.50
2023-03-16T22:32:01.520Z,13.57
2023-03-16T22:34:33.916Z,13.37
2023-03-16T22:37:03.996Z,13.03
2023-03-16T22:39:37.792Z,14.03
2023-03-16T22:42:26.311Z,14.33
2023-03-16T22:44:55.069Z,14.27
2023-03-16T22:47:26.193Z,14.53
2023-03-16T22:49:54.905Z,13.80
2023-03-16T22:52:29.593Z,13.17
2023-03-16T22:54:59.014Z,14.13
2023-03-16T22:57:27.699Z,13.63
2023-03-16T22:59:56.384Z,12.77
2023-03-16T23:02:27.498Z,12.87
2023-03-16T23:04:56.387Z,13.20
2023-03-16T23:07:26.171Z,13.40
2023-03-16T23:09:54.606Z,13.20
2023-03-16T23:12:23.248Z,13.73
2023-03-16T23:14:51.793Z,13.40
2023-03-16T23:17:23.862Z,12.47
2023-03-16T23:19:52.648Z,13.10
2023-03-16T23:22:21.099Z,13.97
2023-03-16T23:24:50.747Z,12.77
2023-03-16T23:27:21.641Z,13.07
2023-03-16T23:29:50.283Z,12.40
2023-03-16T23:32:18.960Z,13.10
2023-03-16T23:34:47.287Z,13.73
2023-03-16T23:37:15.881Z,14.13
2023-03-16T23:39:44.146Z,14.07
2023-03-16T23:42:13.820Z,13.20
2023-03-16T23:44:42.287Z,13.87
2023-03-16T23:47:12.040Z,13.07
2023-03-16T23:49:42.237Z,13.43
2023-03-16T23:52:14.585Z,12.30
2023-03-16T23:54:43.441Z,12.53
2023-03-16T23:57:13.194Z,13.60
2023-03-16T23:59:42.589Z,13.27
